Aviation Digital Data Service (ADDS)

Output produced by METARs form (0008 UTC 23 March 2019)
found at http://www.aviationweather.gov/metar/data/
 
METAR text: VEGT 230000Z 00000KT 1800 TS SCT018 FEW025CB BKN100 19/17 Q1009 NOSIG
Conditions at: VEGT (GAUHATI (IN-AFB), IN) observed 0000 UTC 23 March 2019
Temperature: 19.0°C (66°F)
Dewpoint: 17.0°C (63°F) [RH = 88%]
Pressure (altimeter): 29.79 inches Hg (1009.0 mb)
Winds: calm
Visibility: 1.12 miles (1.80 km)
Ceiling: 10000 feet AGL
Clouds: scattered clouds at 1800 feet AGL
few clouds at 2500 feet AGL
broken clouds at 10000 feet AGL
Weather: TS  (thunderstorm)

METAR text: VEGT 222330Z 00000KT 2000 TS SCT018 FEW025CB BKN100 20/16 Q1009 BECMG 1500 BR
Conditions at: VEGT (GAUHATI (IN-AFB), IN) observed 2330 UTC 22 March 2019
Temperature: 20.0°C (68°F)
Dewpoint: 16.0°C (61°F) [RH = 78%]
Pressure (altimeter): 29.79 inches Hg (1009.0 mb)
Winds: calm
Visibility: 1.24 miles (2.00 km)
Ceiling: 10000 feet AGL
Clouds: scattered clouds at 1800 feet AGL
few clouds at 2500 feet AGL
broken clouds at 10000 feet AGL
Weather: TS  (thunderstorm)

METAR text: VEGT 222300Z 05003KT 2000 TS SCT018 FEW025CB BKN100 20/16 Q1009 NOSIG
Conditions at: VEGT (GAUHATI (IN-AFB), IN) observed 2300 UTC 22 March 2019
Temperature: 20.0°C (68°F)
Dewpoint: 16.0°C (61°F) [RH = 78%]
Pressure (altimeter): 29.79 inches Hg (1009.0 mb)
Winds: from the NE (50 degrees) at 3 MPH (3 knots; 1.5 m/s)
Visibility: 1.24 miles (2.00 km)
Ceiling: 10000 feet AGL
Clouds: scattered clouds at 1800 feet AGL
few clouds at 2500 feet AGL
broken clouds at 10000 feet AGL
Weather: TS  (thunderstorm)

METAR text: VEGT 222230Z 04003KT 2000 TS SCT018 FEW025CB BKN100 21/16 Q1009 NOSIG
Conditions at: VEGT (GAUHATI (IN-AFB), IN) observed 2230 UTC 22 March 2019
Temperature: 21.0°C (70°F)
Dewpoint: 16.0°C (61°F) [RH = 73%]
Pressure (altimeter): 29.79 inches Hg (1009.0 mb)
Winds: from the NE (40 degrees) at 3 MPH (3 knots; 1.5 m/s)
Visibility: 1.24 miles (2.00 km)
Ceiling: 10000 feet AGL
Clouds: scattered clouds at 1800 feet AGL
few clouds at 2500 feet AGL
broken clouds at 10000 feet AGL
Weather: TS  (thunderstorm)

METAR text: VEGT 222200Z 05003KT 2000 TS SCT018 FEW025CB BKN100 21/16 Q1009 NOSIG
Conditions at: VEGT (GAUHATI (IN-AFB), IN) observed 2200 UTC 22 March 2019
Temperature: 21.0°C (70°F)
Dewpoint: 16.0°C (61°F) [RH = 73%]
Pressure (altimeter): 29.79 inches Hg (1009.0 mb)
Winds: from the NE (50 degrees) at 3 MPH (3 knots; 1.5 m/s)
Visibility: 1.24 miles (2.00 km)
Ceiling: 10000 feet AGL
Clouds: scattered clouds at 1800 feet AGL
few clouds at 2500 feet AGL
broken clouds at 10000 feet AGL
Weather: TS  (thunderstorm)

METAR text: VEGT 222130Z 05004KT 2500 HZ SCT018 FEW025CB BKN100 21/16 Q1007 NOSIG
Conditions at: VEGT (GAUHATI (IN-AFB), IN) observed 2130 UTC 22 March 2019
Temperature: 21.0°C (70°F)
Dewpoint: 16.0°C (61°F) [RH = 73%]
Pressure (altimeter): 29.73 inches Hg (1007.0 mb)
Winds: from the NE (50 degrees) at 5 MPH (4 knots; 2.1 m/s)
Visibility: 1.55 miles (2.49 km)
Ceiling: 10000 feet AGL
Clouds: scattered clouds at 1800 feet AGL
few clouds at 2500 feet AGL
broken clouds at 10000 feet AGL
Weather: HZ  (haze)

METAR text: VEGT 222100Z 07006KT 2500 HZ SCT018 FEW025CB BKN100 22/17 Q1010 NOSIG
Conditions at: VEGT (GAUHATI (IN-AFB), IN) observed 2100 UTC 22 March 2019
Temperature: 22.0°C (72°F)
Dewpoint: 17.0°C (63°F) [RH = 73%]
Pressure (altimeter): 29.82 inches Hg (1010.0 mb)
Winds: from the ENE (70 degrees) at 7 MPH (6 knots; 3.1 m/s)
Visibility: 1.55 miles (2.49 km)
Ceiling: 10000 feet AGL
Clouds: scattered clouds at 1800 feet AGL
few clouds at 2500 feet AGL
broken clouds at 10000 feet AGL
Weather: HZ  (haze)

METAR text: VEGT 222030Z 07008KT 3000 HZ SCT018 FEW025CB BKN100 22/16 Q1010 NOSIG
Conditions at: VEGT (GAUHATI (IN-AFB), IN) observed 2030 UTC 22 March 2019
Temperature: 22.0°C (72°F)
Dewpoint: 16.0°C (61°F) [RH = 69%]
Pressure (altimeter): 29.82 inches Hg (1010.0 mb)
Winds: from the ENE (70 degrees) at 9 MPH (8 knots; 4.1 m/s)
Visibility: 1.86 miles (2.99 km)
Ceiling: 10000 feet AGL
Clouds: scattered clouds at 1800 feet AGL
few clouds at 2500 feet AGL
broken clouds at 10000 feet AGL
Weather: HZ  (haze)

METAR text: VEGT 222000Z 07005KT 3000 HZ SCT018 BKN100 22/16 Q1011 NOSIG
Conditions at: VEGT (GAUHATI (IN-AFB), IN) observed 2000 UTC 22 March 2019
Temperature: 22.0°C (72°F)
Dewpoint: 16.0°C (61°F) [RH = 69%]
Pressure (altimeter): 29.85 inches Hg (1011.0 mb)
Winds: from the ENE (70 degrees) at 6 MPH (5 knots; 2.6 m/s)
Visibility: 1.86 miles (2.99 km)
Ceiling: 10000 feet AGL
Clouds: scattered clouds at 1800 feet AGL
broken clouds at 10000 feet AGL
Weather: HZ  (haze)

METAR text: VEGT 221930Z 05005KT 3000 HZ SCT018 BKN100 22/16 Q1011 NOSIG
Conditions at: VEGT (GAUHATI (IN-AFB), IN) observed 1930 UTC 22 March 2019
Temperature: 22.0°C (72°F)
Dewpoint: 16.0°C (61°F) [RH = 69%]
Pressure (altimeter): 29.85 inches Hg (1011.0 mb)
Winds: from the NE (50 degrees) at 6 MPH (5 knots; 2.6 m/s)
Visibility: 1.86 miles (2.99 km)
Ceiling: 10000 feet AGL
Clouds: scattered clouds at 1800 feet AGL
broken clouds at 10000 feet AGL
Weather: HZ  (haze)

METAR text: VEGT 221900Z 02007KT 3000 HZ SCT018 BKN100 23/16 Q1011 NOSIG
Conditions at: VEGT (GAUHATI (IN-AFB), IN) observed 1900 UTC 22 March 2019
Temperature: 23.0°C (73°F)
Dewpoint: 16.0°C (61°F) [RH = 65%]
Pressure (altimeter): 29.85 inches Hg (1011.0 mb)
Winds: from the NNE (20 degrees) at 8 MPH (7 knots; 3.6 m/s)
Visibility: 1.86 miles (2.99 km)
Ceiling: 10000 feet AGL
Clouds: scattered clouds at 1800 feet AGL
broken clouds at 10000 feet AGL
Weather: HZ  (haze)

METAR text: VEGT 221830Z 01008KT 3000 HZ SCT018 BKN100 23/16 Q1012 NOSIG
Conditions at: VEGT (GAUHATI (IN-AFB), IN) observed 1830 UTC 22 March 2019
Temperature: 23.0°C (73°F)
Dewpoint: 16.0°C (61°F) [RH = 65%]
Pressure (altimeter): 29.88 inches Hg (1012.0 mb)
Winds: from the N (10 degrees) at 9 MPH (8 knots; 4.1 m/s)
Visibility: 1.86 miles (2.99 km)
Ceiling: 10000 feet AGL
Clouds: scattered clouds at 1800 feet AGL
broken clouds at 10000 feet AGL
Weather: HZ  (haze)

METAR text: VEGT 221800Z 01008KT 3000 HZ SCT018 BKN100 23/16 Q1012 NOSIG
Conditions at: VEGT (GAUHATI (IN-AFB), IN) observed 1800 UTC 22 March 2019
Temperature: 23.0°C (73°F)
Dewpoint: 16.0°C (61°F) [RH = 65%]
Pressure (altimeter): 29.88 inches Hg (1012.0 mb)
Winds: from the N (10 degrees) at 9 MPH (8 knots; 4.1 m/s)
Visibility: 1.86 miles (2.99 km)
Ceiling: 10000 feet AGL
Clouds: scattered clouds at 1800 feet AGL
broken clouds at 10000 feet AGL
Weather: HZ  (haze)

METAR text: VEGT 221730Z 24008KT 3000 HZ SCT018 BKN100 23/16 Q1011 NOSIG
Conditions at: VEGT (GAUHATI (IN-AFB), IN) observed 1730 UTC 22 March 2019
Temperature: 23.0°C (73°F)
Dewpoint: 16.0°C (61°F) [RH = 65%]
Pressure (altimeter): 29.85 inches Hg (1011.0 mb)
Winds: from the WSW (240 degrees) at 9 MPH (8 knots; 4.1 m/s)
Visibility: 1.86 miles (2.99 km)
Ceiling: 10000 feet AGL
Clouds: scattered clouds at 1800 feet AGL
broken clouds at 10000 feet AGL
Weather: HZ  (haze)

METAR text: VEGT 221700Z 24012KT 3000 HZ SCT018 BKN100 23/16 Q1011 NOSIG
Conditions at: VEGT (GAUHATI (IN-AFB), IN) observed 1700 UTC 22 March 2019
Temperature: 23.0°C (73°F)
Dewpoint: 16.0°C (61°F) [RH = 65%]
Pressure (altimeter): 29.85 inches Hg (1011.0 mb)
Winds: from the WSW (240 degrees) at 14 MPH (12 knots; 6.2 m/s)
Visibility: 1.86 miles (2.99 km)
Ceiling: 10000 feet AGL
Clouds: scattered clouds at 1800 feet AGL
broken clouds at 10000 feet AGL
Weather: HZ  (haze)

METAR text: VEGT 221630Z 04005KT 3000 HZ SCT018 BKN100 24/16 Q1010 NOSIG
Conditions at: VEGT (GAUHATI (IN-AFB), IN) observed 1630 UTC 22 March 2019
Temperature: 24.0°C (75°F)
Dewpoint: 16.0°C (61°F) [RH = 61%]
Pressure (altimeter): 29.82 inches Hg (1010.0 mb)
Winds: from the NE (40 degrees) at 6 MPH (5 knots; 2.6 m/s)
Visibility: 1.86 miles (2.99 km)
Ceiling: 10000 feet AGL
Clouds: scattered clouds at 1800 feet AGL
broken clouds at 10000 feet AGL
Weather: HZ  (haze)

METAR text: VEGT 221600Z 01005KT 3000 HZ SCT018 BKN100 24/16 Q1010 NOSIG
Conditions at: VEGT (GAUHATI (IN-AFB), IN) observed 1600 UTC 22 March 2019
Temperature: 24.0°C (75°F)
Dewpoint: 16.0°C (61°F) [RH = 61%]
Pressure (altimeter): 29.82 inches Hg (1010.0 mb)
Winds: from the N (10 degrees) at 6 MPH (5 knots; 2.6 m/s)
Visibility: 1.86 miles (2.99 km)
Ceiling: 10000 feet AGL
Clouds: scattered clouds at 1800 feet AGL
broken clouds at 10000 feet AGL
Weather: HZ  (haze)

METAR text: VEGT 221530Z 06005KT 3000 HZ SCT018 BKN100 25/16 Q1010 NOSIG
Conditions at: VEGT (GAUHATI (IN-AFB), IN) observed 1530 UTC 22 March 2019
Temperature: 25.0°C (77°F)
Dewpoint: 16.0°C (61°F) [RH = 57%]
Pressure (altimeter): 29.82 inches Hg (1010.0 mb)
Winds: from the ENE (60 degrees) at 6 MPH (5 knots; 2.6 m/s)
Visibility: 1.86 miles (2.99 km)
Ceiling: 10000 feet AGL
Clouds: scattered clouds at 1800 feet AGL
broken clouds at 10000 feet AGL
Weather: HZ  (haze)

METAR text: VEGT 221500Z 02006KT 3000 TS SCT018 FEW025CB BKN100 25/16 Q1010 NOSIG
Conditions at: VEGT (GAUHATI (IN-AFB), IN) observed 1500 UTC 22 March 2019
Temperature: 25.0°C (77°F)
Dewpoint: 16.0°C (61°F) [RH = 57%]
Pressure (altimeter): 29.82 inches Hg (1010.0 mb)
Winds: from the NNE (20 degrees) at 7 MPH (6 knots; 3.1 m/s)
Visibility: 1.86 miles (2.99 km)
Ceiling: 10000 feet AGL
Clouds: scattered clouds at 1800 feet AGL
few clouds at 2500 feet AGL
broken clouds at 10000 feet AGL
Weather: TS  (thunderstorm)

METAR text: VEGT 221430Z 01008KT 3000 TS SCT018 FEW025CB BKN100 26/16 Q1010 NOSIG
Conditions at: VEGT (GAUHATI (IN-AFB), IN) observed 1430 UTC 22 March 2019
Temperature: 26.0°C (79°F)
Dewpoint: 16.0°C (61°F) [RH = 54%]
Pressure (altimeter): 29.82 inches Hg (1010.0 mb)
Winds: from the N (10 degrees) at 9 MPH (8 knots; 4.1 m/s)
Visibility: 1.86 miles (2.99 km)
Ceiling: 10000 feet AGL
Clouds: scattered clouds at 1800 feet AGL
few clouds at 2500 feet AGL
broken clouds at 10000 feet AGL
Weather: TS  (thunderstorm)

METAR text: VEGT 221400Z 05005KT 3000 -TSRA SCT018 FEW025CB BKN100 26/16 Q1009 NOSIG
Conditions at: VEGT (GAUHATI (IN-AFB), IN) observed 1400 UTC 22 March 2019
Temperature: 26.0°C (79°F)
Dewpoint: 16.0°C (61°F) [RH = 54%]
Pressure (altimeter): 29.79 inches Hg (1009.0 mb)
Winds: from the NE (50 degrees) at 6 MPH (5 knots; 2.6 m/s)
Visibility: 1.86 miles (2.99 km)
Ceiling: 10000 feet AGL
Clouds: scattered clouds at 1800 feet AGL
few clouds at 2500 feet AGL
broken clouds at 10000 feet AGL
Weather: -TSRA  (light rain associated with thunderstorm(s))

METAR text: VEGT 221330Z 03006KT 3000 -TSRA FEW010 SCT100 27/17 Q1009 NOSIG
Conditions at: VEGT (GAUHATI (IN-AFB), IN) observed 1330 UTC 22 March 2019
Temperature: 27.0°C (81°F)
Dewpoint: 17.0°C (63°F) [RH = 54%]
Pressure (altimeter): 29.79 inches Hg (1009.0 mb)
Winds: from the NNE (30 degrees) at 7 MPH (6 knots; 3.1 m/s)
Visibility: 1.86 miles (2.99 km)
Ceiling: at least 12,000 feet AGL
Clouds: few clouds at 1000 feet AGL
scattered clouds at 10000 feet AGL
Weather: -TSRA  (light rain associated with thunderstorm(s))

METAR text: VEGT 221300Z 03009KT 3000 -RA FEW010 SCT100 28/17 Q1008 NOSIG
Conditions at: VEGT (GAUHATI (IN-AFB), IN) observed 1300 UTC 22 March 2019
Temperature: 28.0°C (82°F)
Dewpoint: 17.0°C (63°F) [RH = 51%]
Pressure (altimeter): 29.76 inches Hg (1008.0 mb)
Winds: from the NNE (30 degrees) at 10 MPH (9 knots; 4.6 m/s)
Visibility: 1.86 miles (2.99 km)
Ceiling: at least 12,000 feet AGL
Clouds: few clouds at 1000 feet AGL
scattered clouds at 10000 feet AGL
Weather: -RA  (light rain)

METAR text: VEGT 221230Z 07004KT 3500 HZ FEW010 SCT100 28/17 Q1007 NOSIG
Conditions at: VEGT (GAUHATI (IN-AFB), IN) observed 1230 UTC 22 March 2019
Temperature: 28.0°C (82°F)
Dewpoint: 17.0°C (63°F) [RH = 51%]
Pressure (altimeter): 29.73 inches Hg (1007.0 mb)
Winds: from the ENE (70 degrees) at 5 MPH (4 knots; 2.1 m/s)
Visibility: 2.17 miles (3.49 km)
Ceiling: at least 12,000 feet AGL
Clouds: few clouds at 1000 feet AGL
scattered clouds at 10000 feet AGL
Weather: HZ  (haze)

METAR text: VEGT 221200Z 02005KT 4000 HZ FEW010 SCT100 29/17 Q1007 BECMG 3000 HZ
Conditions at: VEGT (GAUHATI (IN-AFB), IN) observed 1200 UTC 22 March 2019
Temperature: 29.0°C (84°F)
Dewpoint: 17.0°C (63°F) [RH = 48%]
Pressure (altimeter): 29.73 inches Hg (1007.0 mb)
Winds: from the NNE (20 degrees) at 6 MPH (5 knots; 2.6 m/s)
Visibility: 2.49 miles (4.01 km)
Ceiling: at least 12,000 feet AGL
Clouds: few clouds at 1000 feet AGL
scattered clouds at 10000 feet AGL
Weather: HZ  (haze)

METAR text: VEGT 221130Z 06007KT 4000 HZ FEW010 FEW025CB SCT100 29/17 Q1007 NOSIG
Conditions at: VEGT (GAUHATI (IN-AFB), IN) observed 1130 UTC 22 March 2019
Temperature: 29.0°C (84°F)
Dewpoint: 17.0°C (63°F) [RH = 48%]
Pressure (altimeter): 29.73 inches Hg (1007.0 mb)
Winds: from the ENE (60 degrees) at 8 MPH (7 knots; 3.6 m/s)
Visibility: 2.49 miles (4.01 km)
Ceiling: at least 12,000 feet AGL
Clouds: few clouds at 1000 feet AGL
few clouds at 2500 feet AGL
scattered clouds at 10000 feet AGL
Weather: HZ  (haze)

METAR text: VEGT 221100Z 05004KT 4000 HZ FEW010 FEW025CB SCT100 30/17 Q1007 NOSIG
Conditions at: VEGT (GAUHATI (IN-AFB), IN) observed 1100 UTC 22 March 2019
Temperature: 30.0°C (86°F)
Dewpoint: 17.0°C (63°F) [RH = 46%]
Pressure (altimeter): 29.73 inches Hg (1007.0 mb)
Winds: from the NE (50 degrees) at 5 MPH (4 knots; 2.1 m/s)
Visibility: 2.49 miles (4.01 km)
Ceiling: at least 12,000 feet AGL
Clouds: few clouds at 1000 feet AGL
few clouds at 2500 feet AGL
scattered clouds at 10000 feet AGL
Weather: HZ  (haze)

METAR text: VEGT 221030Z 03005KT 4000 HZ FEW018 FEW025CB SCT100 31/17 Q1007 NOSIG
Conditions at: VEGT (GAUHATI (IN-AFB), IN) observed 1030 UTC 22 March 2019
Temperature: 31.0°C (88°F)
Dewpoint: 17.0°C (63°F) [RH = 43%]
Pressure (altimeter): 29.73 inches Hg (1007.0 mb)
Winds: from the NNE (30 degrees) at 6 MPH (5 knots; 2.6 m/s)
Visibility: 2.49 miles (4.01 km)
Ceiling: at least 12,000 feet AGL
Clouds: few clouds at 1800 feet AGL
few clouds at 2500 feet AGL
scattered clouds at 10000 feet AGL
Weather: HZ  (haze)

METAR text: VEGT 221000Z 01005KT 4000 HZ FEW018 FEW025CB SCT100 31/17 Q1007 NOSIG
Conditions at: VEGT (GAUHATI (IN-AFB), IN) observed 1000 UTC 22 March 2019
Temperature: 31.0°C (88°F)
Dewpoint: 17.0°C (63°F) [RH = 43%]
Pressure (altimeter): 29.73 inches Hg (1007.0 mb)
Winds: from the N (10 degrees) at 6 MPH (5 knots; 2.6 m/s)
Visibility: 2.49 miles (4.01 km)
Ceiling: at least 12,000 feet AGL
Clouds: few clouds at 1800 feet AGL
few clouds at 2500 feet AGL
scattered clouds at 10000 feet AGL
Weather: HZ  (haze)

METAR text: VEGT 220930Z 01003KT 4000 HZ FEW018 FEW025CB SCT100 31/17 Q1008 NOSIG
Conditions at: VEGT (GAUHATI (IN-AFB), IN) observed 0930 UTC 22 March 2019
Temperature: 31.0°C (88°F)
Dewpoint: 17.0°C (63°F) [RH = 43%]
Pressure (altimeter): 29.76 inches Hg (1008.0 mb)
Winds: from the N (10 degrees) at 3 MPH (3 knots; 1.5 m/s)
Visibility: 2.49 miles (4.01 km)
Ceiling: at least 12,000 feet AGL
Clouds: few clouds at 1800 feet AGL
few clouds at 2500 feet AGL
scattered clouds at 10000 feet AGL
Weather: HZ  (haze)

METAR text: VEGT 220900Z 36005KT 4000 HZ FEW018 SCT100 31/17 Q1008 NOSIG
Conditions at: VEGT (GAUHATI (IN-AFB), IN) observed 0900 UTC 22 March 2019
Temperature: 31.0°C (88°F)
Dewpoint: 17.0°C (63°F) [RH = 43%]
Pressure (altimeter): 29.76 inches Hg (1008.0 mb)
Winds: from the N (360 degrees) at 6 MPH (5 knots; 2.6 m/s)
Visibility: 2.49 miles (4.01 km)
Ceiling: at least 12,000 feet AGL
Clouds: few clouds at 1800 feet AGL
scattered clouds at 10000 feet AGL
Weather: HZ  (haze)

METAR text: VEGT 220830Z 35006KT 4000 HZ FEW018 FEW025CB SCT100 31/17 Q1008 NOSIG
Conditions at: VEGT (GAUHATI (IN-AFB), IN) observed 0830 UTC 22 March 2019
Temperature: 31.0°C (88°F)
Dewpoint: 17.0°C (63°F) [RH = 43%]
Pressure (altimeter): 29.76 inches Hg (1008.0 mb)
Winds: from the N (350 degrees) at 7 MPH (6 knots; 3.1 m/s)
Visibility: 2.49 miles (4.01 km)
Ceiling: at least 12,000 feet AGL
Clouds: few clouds at 1800 feet AGL
few clouds at 2500 feet AGL
scattered clouds at 10000 feet AGL
Weather: HZ  (haze)

METAR text: VEGT 220800Z 01007KT 4000 HZ FEW020 FEW025CB SCT100 30/17 Q1009 NOSIG
Conditions at: VEGT (GAUHATI (IN-AFB), IN) observed 0800 UTC 22 March 2019
Temperature: 30.0°C (86°F)
Dewpoint: 17.0°C (63°F) [RH = 46%]
Pressure (altimeter): 29.79 inches Hg (1009.0 mb)
Winds: from the N (10 degrees) at 8 MPH (7 knots; 3.6 m/s)
Visibility: 2.49 miles (4.01 km)
Ceiling: at least 12,000 feet AGL
Clouds: few clouds at 2000 feet AGL
few clouds at 2500 feet AGL
scattered clouds at 10000 feet AGL
Weather: HZ  (haze)

METAR text: VEGT 220730Z 01009KT 4000 HZ FEW020 SCT100 29/18 Q1010 NOSIG
Conditions at: VEGT (GAUHATI (IN-AFB), IN) observed 0730 UTC 22 March 2019
Temperature: 29.0°C (84°F)
Dewpoint: 18.0°C (64°F) [RH = 52%]
Pressure (altimeter): 29.82 inches Hg (1010.0 mb)
Winds: from the N (10 degrees) at 10 MPH (9 knots; 4.6 m/s)
Visibility: 2.49 miles (4.01 km)
Ceiling: at least 12,000 feet AGL
Clouds: few clouds at 2000 feet AGL
scattered clouds at 10000 feet AGL
Weather: HZ  (haze)

METAR text: VEGT 220700Z 01008KT 4000 HZ FEW020 SCT100 29/18 Q1010 NOSIG
Conditions at: VEGT (GAUHATI (IN-AFB), IN) observed 0700 UTC 22 March 2019
Temperature: 29.0°C (84°F)
Dewpoint: 18.0°C (64°F) [RH = 52%]
Pressure (altimeter): 29.82 inches Hg (1010.0 mb)
Winds: from the N (10 degrees) at 9 MPH (8 knots; 4.1 m/s)
Visibility: 2.49 miles (4.01 km)
Ceiling: at least 12,000 feet AGL
Clouds: few clouds at 2000 feet AGL
scattered clouds at 10000 feet AGL
Weather: HZ  (haze)

METAR text: VEGT 220630Z 02007KT 4000 HZ FEW020 SCT100 29/18 Q1011 NOSIG
Conditions at: VEGT (GAUHATI (IN-AFB), IN) observed 0630 UTC 22 March 2019
Temperature: 29.0°C (84°F)
Dewpoint: 18.0°C (64°F) [RH = 52%]
Pressure (altimeter): 29.85 inches Hg (1011.0 mb)
Winds: from the NNE (20 degrees) at 8 MPH (7 knots; 3.6 m/s)
Visibility: 2.49 miles (4.01 km)
Ceiling: at least 12,000 feet AGL
Clouds: few clouds at 2000 feet AGL
scattered clouds at 10000 feet AGL
Weather: HZ  (haze)

METAR text: VEGT 220600Z 02007KT 3500 HZ FEW020 28/18 Q1011 NOSIG
Conditions at: VEGT (GAUHATI (IN-AFB), IN) observed 0600 UTC 22 March 2019
Temperature: 28.0°C (82°F)
Dewpoint: 18.0°C (64°F) [RH = 55%]
Pressure (altimeter): 29.85 inches Hg (1011.0 mb)
Winds: from the NNE (20 degrees) at 8 MPH (7 knots; 3.6 m/s)
Visibility: 2.17 miles (3.49 km)
Ceiling: at least 12,000 feet AGL
Clouds: few clouds at 2000 feet AGL
Weather: HZ  (haze)

METAR text: VEGT 220530Z 02007KT 3500 HZ FEW020 28/18 Q1012 NOSIG
Conditions at: VEGT (GAUHATI (IN-AFB), IN) observed 0530 UTC 22 March 2019
Temperature: 28.0°C (82°F)
Dewpoint: 18.0°C (64°F) [RH = 55%]
Pressure (altimeter): 29.88 inches Hg (1012.0 mb)
Winds: from the NNE (20 degrees) at 8 MPH (7 knots; 3.6 m/s)
Visibility: 2.17 miles (3.49 km)
Ceiling: at least 12,000 feet AGL
Clouds: few clouds at 2000 feet AGL
Weather: HZ  (haze)

METAR text: VEGT 220500Z 02008KT 3000 HZ FEW020 27/19 Q1012 NOSIG
Conditions at: VEGT (GAUHATI (IN-AFB), IN) observed 0500 UTC 22 March 2019
Temperature: 27.0°C (81°F)
Dewpoint: 19.0°C (66°F) [RH = 62%]
Pressure (altimeter): 29.88 inches Hg (1012.0 mb)
Winds: from the NNE (20 degrees) at 9 MPH (8 knots; 4.1 m/s)
Visibility: 1.86 miles (2.99 km)
Ceiling: at least 12,000 feet AGL
Clouds: few clouds at 2000 feet AGL
Weather: HZ  (haze)

METAR text: VEGT 220430Z 01009KT 3000 HZ FEW020 27/19 Q1012 NOSIG
Conditions at: VEGT (GAUHATI (IN-AFB), IN) observed 0430 UTC 22 March 2019
Temperature: 27.0°C (81°F)
Dewpoint: 19.0°C (66°F) [RH = 62%]
Pressure (altimeter): 29.88 inches Hg (1012.0 mb)
Winds: from the N (10 degrees) at 10 MPH (9 knots; 4.6 m/s)
Visibility: 1.86 miles (2.99 km)
Ceiling: at least 12,000 feet AGL
Clouds: few clouds at 2000 feet AGL
Weather: HZ  (haze)

METAR text: VEGT 220400Z 03007KT 3000 HZ FEW020 26/19 Q1013 NOSIG
Conditions at: VEGT (GAUHATI (IN-AFB), IN) observed 0400 UTC 22 March 2019
Temperature: 26.0°C (79°F)
Dewpoint: 19.0°C (66°F) [RH = 65%]
Pressure (altimeter): 29.91 inches Hg (1013.0 mb)
Winds: from the NNE (30 degrees) at 8 MPH (7 knots; 3.6 m/s)
Visibility: 1.86 miles (2.99 km)
Ceiling: at least 12,000 feet AGL
Clouds: few clouds at 2000 feet AGL
Weather: HZ  (haze)

METAR text: VEGT 220330Z 07008KT 3000 HZ FEW020 25/19 Q1013 NOSIG
Conditions at: VEGT (GAUHATI (IN-AFB), IN) observed 0330 UTC 22 March 2019
Temperature: 25.0°C (77°F)
Dewpoint: 19.0°C (66°F) [RH = 69%]
Pressure (altimeter): 29.91 inches Hg (1013.0 mb)
Winds: from the ENE (70 degrees) at 9 MPH (8 knots; 4.1 m/s)
Visibility: 1.86 miles (2.99 km)
Ceiling: at least 12,000 feet AGL
Clouds: few clouds at 2000 feet AGL
Weather: HZ  (haze)

METAR text: VEGT 220300Z 06009KT 2500 HZ FEW020 SCT100 24/19 Q1013 NOSIG
Conditions at: VEGT (GAUHATI (IN-AFB), IN) observed 0300 UTC 22 March 2019
Temperature: 24.0°C (75°F)
Dewpoint: 19.0°C (66°F) [RH = 74%]
Pressure (altimeter): 29.91 inches Hg (1013.0 mb)
Winds: from the ENE (60 degrees) at 10 MPH (9 knots; 4.6 m/s)
Visibility: 1.55 miles (2.49 km)
Ceiling: at least 12,000 feet AGL
Clouds: few clouds at 2000 feet AGL
scattered clouds at 10000 feet AGL
Weather: HZ  (haze)

METAR text: VEGT 220230Z 05006KT 2000 BR FEW020 SCT100 23/19 Q1013 NOSIG
Conditions at: VEGT (GAUHATI (IN-AFB), IN) observed 0230 UTC 22 March 2019
Temperature: 23.0°C (73°F)
Dewpoint: 19.0°C (66°F) [RH = 78%]
Pressure (altimeter): 29.91 inches Hg (1013.0 mb)
Winds: from the NE (50 degrees) at 7 MPH (6 knots; 3.1 m/s)
Visibility: 1.24 miles (2.00 km)
Ceiling: at least 12,000 feet AGL
Clouds: few clouds at 2000 feet AGL
scattered clouds at 10000 feet AGL
Weather: BR  (mist)

METAR text: VEGT 220200Z 00000KT 2000 BR FEW020 SCT100 22/18 Q1012 NOSIG
Conditions at: VEGT (GAUHATI (IN-AFB), IN) observed 0200 UTC 22 March 2019
Temperature: 22.0°C (72°F)
Dewpoint: 18.0°C (64°F) [RH = 78%]
Pressure (altimeter): 29.88 inches Hg (1012.0 mb)
Winds: calm
Visibility: 1.24 miles (2.00 km)
Ceiling: at least 12,000 feet AGL
Clouds: few clouds at 2000 feet AGL
scattered clouds at 10000 feet AGL
Weather: BR  (mist)

METAR text: VEGT 220130Z 05003KT 2000 BR FEW020 SCT100 21/17 Q1012 NOSIG
Conditions at: VEGT (GAUHATI (IN-AFB), IN) observed 0130 UTC 22 March 2019
Temperature: 21.0°C (70°F)
Dewpoint: 17.0°C (63°F) [RH = 78%]
Pressure (altimeter): 29.88 inches Hg (1012.0 mb)
Winds: from the NE (50 degrees) at 3 MPH (3 knots; 1.5 m/s)
Visibility: 1.24 miles (2.00 km)
Ceiling: at least 12,000 feet AGL
Clouds: few clouds at 2000 feet AGL
scattered clouds at 10000 feet AGL
Weather: BR  (mist)

METAR text: VEGT 220100Z 07003KT 2000 BR FEW020 SCT100 20/16 Q1012 BECMG 3000 BR
Conditions at: VEGT (GAUHATI (IN-AFB), IN) observed 0100 UTC 22 March 2019
Temperature: 20.0°C (68°F)
Dewpoint: 16.0°C (61°F) [RH = 78%]
Pressure (altimeter): 29.88 inches Hg (1012.0 mb)
Winds: from the ENE (70 degrees) at 3 MPH (3 knots; 1.5 m/s)
Visibility: 1.24 miles (2.00 km)
Ceiling: at least 12,000 feet AGL
Clouds: few clouds at 2000 feet AGL
scattered clouds at 10000 feet AGL
Weather: BR  (mist)

METAR text: VEGT 220030Z 03003KT 2000 BR FEW020 SCT100 20/16 Q1011 NOSIG
Conditions at: VEGT (GAUHATI (IN-AFB), IN) observed 0030 UTC 22 March 2019
Temperature: 20.0°C (68°F)
Dewpoint: 16.0°C (61°F) [RH = 78%]
Pressure (altimeter): 29.85 inches Hg (1011.0 mb)
Winds: from the NNE (30 degrees) at 3 MPH (3 knots; 1.5 m/s)
Visibility: 1.24 miles (2.00 km)
Ceiling: at least 12,000 feet AGL
Clouds: few clouds at 2000 feet AGL
scattered clouds at 10000 feet AGL
Weather: BR  (mist)

METAR text: VEGT 220000Z 00000KT 1800 HZ FEW020 SCT100 20/16 Q1011 NOSIG
Conditions at: VEGT (GAUHATI (IN-AFB), IN) observed 0000 UTC 22 March 2019
Temperature: 20.0°C (68°F)
Dewpoint: 16.0°C (61°F) [RH = 78%]
Pressure (altimeter): 29.85 inches Hg (1011.0 mb)
Winds: calm
Visibility: 1.12 miles (1.80 km)
Ceiling: at least 12,000 feet AGL
Clouds: few clouds at 2000 feet AGL
scattered clouds at 10000 feet AGL
Weather: HZ  (haze)

METAR text: VEGT 212330Z 00000KT 1800 BR SCT018 BKN100 21/18 Q1012 TEMPO 1500 BR
Conditions at: VEGT (GAUHATI (IN-AFB), IN) observed 2330 UTC 21 March 2019
Temperature: 21.0°C (70°F)
Dewpoint: 18.0°C (64°F) [RH = 83%]
Pressure (altimeter): 29.88 inches Hg (1012.0 mb)
Winds: calm
Visibility: 1.12 miles (1.80 km)
Ceiling: 10000 feet AGL
Clouds: scattered clouds at 1800 feet AGL
broken clouds at 10000 feet AGL
Weather: BR  (mist)

METAR text: VEGT 212300Z 00000KT 2000 BR SCT018 BKN100 21/18 Q1011 NOSIG
Conditions at: VEGT (GAUHATI (IN-AFB), IN) observed 2300 UTC 21 March 2019
Temperature: 21.0°C (70°F)
Dewpoint: 18.0°C (64°F) [RH = 83%]
Pressure (altimeter): 29.85 inches Hg (1011.0 mb)
Winds: calm
Visibility: 1.24 miles (2.00 km)
Ceiling: 10000 feet AGL
Clouds: scattered clouds at 1800 feet AGL
broken clouds at 10000 feet AGL
Weather: BR  (mist)

METAR text: VEGT 212230Z 00000KT 2000 BR SCT018 BKN100 21/18 Q1011 NOSIG
Conditions at: VEGT (GAUHATI (IN-AFB), IN) observed 2230 UTC 21 March 2019
Temperature: 21.0°C (70°F)
Dewpoint: 18.0°C (64°F) [RH = 83%]
Pressure (altimeter): 29.85 inches Hg (1011.0 mb)
Winds: calm
Visibility: 1.24 miles (2.00 km)
Ceiling: 10000 feet AGL
Clouds: scattered clouds at 1800 feet AGL
broken clouds at 10000 feet AGL
Weather: BR  (mist)

METAR text: VEGT 212200Z 04005KT 2000 BR SCT018 BKN100 21/18 Q1011 NOSIG
Conditions at: VEGT (GAUHATI (IN-AFB), IN) observed 2200 UTC 21 March 2019
Temperature: 21.0°C (70°F)
Dewpoint: 18.0°C (64°F) [RH = 83%]
Pressure (altimeter): 29.85 inches Hg (1011.0 mb)
Winds: from the NE (40 degrees) at 6 MPH (5 knots; 2.6 m/s)
Visibility: 1.24 miles (2.00 km)
Ceiling: 10000 feet AGL
Clouds: scattered clouds at 1800 feet AGL
broken clouds at 10000 feet AGL
Weather: BR  (mist)

METAR text: VEGT 212130Z 05004KT 2000 BR FEW018 SCT100 22/17 Q1012 NOSIG
Conditions at: VEGT (GAUHATI (IN-AFB), IN) observed 2130 UTC 21 March 2019
Temperature: 22.0°C (72°F)
Dewpoint: 17.0°C (63°F) [RH = 73%]
Pressure (altimeter): 29.88 inches Hg (1012.0 mb)
Winds: from the NE (50 degrees) at 5 MPH (4 knots; 2.1 m/s)
Visibility: 1.24 miles (2.00 km)
Ceiling: at least 12,000 feet AGL
Clouds: few clouds at 1800 feet AGL
scattered clouds at 10000 feet AGL
Weather: BR  (mist)

METAR text: VEGT 212100Z 01005KT 2500 BR FEW018 SCT100 22/17 Q1012 NOSIG
Conditions at: VEGT (GAUHATI (IN-AFB), IN) observed 2100 UTC 21 March 2019
Temperature: 22.0°C (72°F)
Dewpoint: 17.0°C (63°F) [RH = 73%]
Pressure (altimeter): 29.88 inches Hg (1012.0 mb)
Winds: from the N (10 degrees) at 6 MPH (5 knots; 2.6 m/s)
Visibility: 1.55 miles (2.49 km)
Ceiling: at least 12,000 feet AGL
Clouds: few clouds at 1800 feet AGL
scattered clouds at 10000 feet AGL
Weather: BR  (mist)

METAR text: VEGT 212030Z 03006KT 2500 BR FEW018 SCT100 22/17 Q1012 NOSIG
Conditions at: VEGT (GAUHATI (IN-AFB), IN) observed 2030 UTC 21 March 2019
Temperature: 22.0°C (72°F)
Dewpoint: 17.0°C (63°F) [RH = 73%]
Pressure (altimeter): 29.88 inches Hg (1012.0 mb)
Winds: from the NNE (30 degrees) at 7 MPH (6 knots; 3.1 m/s)
Visibility: 1.55 miles (2.49 km)
Ceiling: at least 12,000 feet AGL
Clouds: few clouds at 1800 feet AGL
scattered clouds at 10000 feet AGL
Weather: BR  (mist)

METAR text: VEGT 212000Z 01005KT 2500 BR FEW018 SCT100 22/17 Q1012 NOSIG
Conditions at: VEGT (GAUHATI (IN-AFB), IN) observed 2000 UTC 21 March 2019
Temperature: 22.0°C (72°F)
Dewpoint: 17.0°C (63°F) [RH = 73%]
Pressure (altimeter): 29.88 inches Hg (1012.0 mb)
Winds: from the N (10 degrees) at 6 MPH (5 knots; 2.6 m/s)
Visibility: 1.55 miles (2.49 km)
Ceiling: at least 12,000 feet AGL
Clouds: few clouds at 1800 feet AGL
scattered clouds at 10000 feet AGL
Weather: BR  (mist)

METAR text: VEGT 211930Z 02006KT 3000 HZ FEW018 SCT100 22/17 Q1012 NOSIG
Conditions at: VEGT (GAUHATI (IN-AFB), IN) observed 1930 UTC 21 March 2019
Temperature: 22.0°C (72°F)
Dewpoint: 17.0°C (63°F) [RH = 73%]
Pressure (altimeter): 29.88 inches Hg (1012.0 mb)
Winds: from the NNE (20 degrees) at 7 MPH (6 knots; 3.1 m/s)
Visibility: 1.86 miles (2.99 km)
Ceiling: at least 12,000 feet AGL
Clouds: few clouds at 1800 feet AGL
scattered clouds at 10000 feet AGL
Weather: HZ  (haze)

METAR text: VEGT 211900Z 01008KT 3000 HZ FEW020 SCT100 23/17 Q1012 NOSIG
Conditions at: VEGT (GAUHATI (IN-AFB), IN) observed 1900 UTC 21 March 2019
Temperature: 23.0°C (73°F)
Dewpoint: 17.0°C (63°F) [RH = 69%]
Pressure (altimeter): 29.88 inches Hg (1012.0 mb)
Winds: from the N (10 degrees) at 9 MPH (8 knots; 4.1 m/s)
Visibility: 1.86 miles (2.99 km)
Ceiling: at least 12,000 feet AGL
Clouds: few clouds at 2000 feet AGL
scattered clouds at 10000 feet AGL
Weather: HZ  (haze)

METAR text: VEGT 211830Z 02007KT 3000 HZ FEW020 SCT100 23/17 Q1012 NOSIG
Conditions at: VEGT (GAUHATI (IN-AFB), IN) observed 1830 UTC 21 March 2019
Temperature: 23.0°C (73°F)
Dewpoint: 17.0°C (63°F) [RH = 69%]
Pressure (altimeter): 29.88 inches Hg (1012.0 mb)
Winds: from the NNE (20 degrees) at 8 MPH (7 knots; 3.6 m/s)
Visibility: 1.86 miles (2.99 km)
Ceiling: at least 12,000 feet AGL
Clouds: few clouds at 2000 feet AGL
scattered clouds at 10000 feet AGL
Weather: HZ  (haze)

METAR text: VEGT 211800Z 03008KT 3000 HZ FEW020 SCT100 23/17 Q1012 NOSIG
Conditions at: VEGT (GAUHATI (IN-AFB), IN) observed 1800 UTC 21 March 2019
Temperature: 23.0°C (73°F)
Dewpoint: 17.0°C (63°F) [RH = 69%]
Pressure (altimeter): 29.88 inches Hg (1012.0 mb)
Winds: from the NNE (30 degrees) at 9 MPH (8 knots; 4.1 m/s)
Visibility: 1.86 miles (2.99 km)
Ceiling: at least 12,000 feet AGL
Clouds: few clouds at 2000 feet AGL
scattered clouds at 10000 feet AGL
Weather: HZ  (haze)

METAR text: VEGT 211730Z 04006KT 3000 HZ FEW020 SCT100 23/17 Q1012 NOSIG
Conditions at: VEGT (GAUHATI (IN-AFB), IN) observed 1730 UTC 21 March 2019
Temperature: 23.0°C (73°F)
Dewpoint: 17.0°C (63°F) [RH = 69%]
Pressure (altimeter): 29.88 inches Hg (1012.0 mb)
Winds: from the NE (40 degrees) at 7 MPH (6 knots; 3.1 m/s)
Visibility: 1.86 miles (2.99 km)
Ceiling: at least 12,000 feet AGL
Clouds: few clouds at 2000 feet AGL
scattered clouds at 10000 feet AGL
Weather: HZ  (haze)

METAR text: VEGT 211700Z 02008KT 3000 HZ FEW020 SCT100 24/17 Q1012 NOSIG
Conditions at: VEGT (GAUHATI (IN-AFB), IN) observed 1700 UTC 21 March 2019
Temperature: 24.0°C (75°F)
Dewpoint: 17.0°C (63°F) [RH = 65%]
Pressure (altimeter): 29.88 inches Hg (1012.0 mb)
Winds: from the NNE (20 degrees) at 9 MPH (8 knots; 4.1 m/s)
Visibility: 1.86 miles (2.99 km)
Ceiling: at least 12,000 feet AGL
Clouds: few clouds at 2000 feet AGL
scattered clouds at 10000 feet AGL
Weather: HZ  (haze)

METAR text: VEGT 211630Z 03008KT 3000 HZ FEW020 SCT100 24/17 Q1012 NOSIG
Conditions at: VEGT (GAUHATI (IN-AFB), IN) observed 1630 UTC 21 March 2019
Temperature: 24.0°C (75°F)
Dewpoint: 17.0°C (63°F) [RH = 65%]
Pressure (altimeter): 29.88 inches Hg (1012.0 mb)
Winds: from the NNE (30 degrees) at 9 MPH (8 knots; 4.1 m/s)
Visibility: 1.86 miles (2.99 km)
Ceiling: at least 12,000 feet AGL
Clouds: few clouds at 2000 feet AGL
scattered clouds at 10000 feet AGL
Weather: HZ  (haze)

METAR text: VEGT 211600Z 01004KT 3000 HZ FEW020 SCT100 26/18 Q1012 NOSIG
Conditions at: VEGT (GAUHATI (IN-AFB), IN) observed 1600 UTC 21 March 2019
Temperature: 26.0°C (79°F)
Dewpoint: 18.0°C (64°F) [RH = 61%]
Pressure (altimeter): 29.88 inches Hg (1012.0 mb)
Winds: from the N (10 degrees) at 5 MPH (4 knots; 2.1 m/s)
Visibility: 1.86 miles (2.99 km)
Ceiling: at least 12,000 feet AGL
Clouds: few clouds at 2000 feet AGL
scattered clouds at 10000 feet AGL
Weather: HZ  (haze)

METAR text: VEGT 211530Z 00000KT 3000 HZ FEW020 SCT100 27/17 Q1012 NOSIG
Conditions at: VEGT (GAUHATI (IN-AFB), IN) observed 1530 UTC 21 March 2019
Temperature: 27.0°C (81°F)
Dewpoint: 17.0°C (63°F) [RH = 54%]
Pressure (altimeter): 29.88 inches Hg (1012.0 mb)
Winds: calm
Visibility: 1.86 miles (2.99 km)
Ceiling: at least 12,000 feet AGL
Clouds: few clouds at 2000 feet AGL
scattered clouds at 10000 feet AGL
Weather: HZ  (haze)

METAR text: VEGT 211500Z 00000KT 3000 HZ FEW020 SCT100 26/18 Q1011 NOSIG
Conditions at: VEGT (GAUHATI (IN-AFB), IN) observed 1500 UTC 21 March 2019
Temperature: 26.0°C (79°F)
Dewpoint: 18.0°C (64°F) [RH = 61%]
Pressure (altimeter): 29.85 inches Hg (1011.0 mb)
Winds: calm
Visibility: 1.86 miles (2.99 km)
Ceiling: at least 12,000 feet AGL
Clouds: few clouds at 2000 feet AGL
scattered clouds at 10000 feet AGL
Weather: HZ  (haze)

METAR text: VEGT 211430Z 00000KT 3000 HZ FEW020 SCT100 26/18 Q1011 NOSIG
Conditions at: VEGT (GAUHATI (IN-AFB), IN) observed 1430 UTC 21 March 2019
Temperature: 26.0°C (79°F)
Dewpoint: 18.0°C (64°F) [RH = 61%]
Pressure (altimeter): 29.85 inches Hg (1011.0 mb)
Winds: calm
Visibility: 1.86 miles (2.99 km)
Ceiling: at least 12,000 feet AGL
Clouds: few clouds at 2000 feet AGL
scattered clouds at 10000 feet AGL
Weather: HZ  (haze)

METAR text: VEGT 211400Z 00000KT 3000 HZ FEW020 SCT100 26/18 Q1011 NOSIG
Conditions at: VEGT (GAUHATI (IN-AFB), IN) observed 1400 UTC 21 March 2019
Temperature: 26.0°C (79°F)
Dewpoint: 18.0°C (64°F) [RH = 61%]
Pressure (altimeter): 29.85 inches Hg (1011.0 mb)
Winds: calm
Visibility: 1.86 miles (2.99 km)
Ceiling: at least 12,000 feet AGL
Clouds: few clouds at 2000 feet AGL
scattered clouds at 10000 feet AGL
Weather: HZ  (haze)

METAR text: VEGT 211330Z 07003KT 3000 HZ FEW020 SCT100 27/17 Q1011 NOSIG
Conditions at: VEGT (GAUHATI (IN-AFB), IN) observed 1330 UTC 21 March 2019
Temperature: 27.0°C (81°F)
Dewpoint: 17.0°C (63°F) [RH = 54%]
Pressure (altimeter): 29.85 inches Hg (1011.0 mb)
Winds: from the ENE (70 degrees) at 3 MPH (3 knots; 1.5 m/s)
Visibility: 1.86 miles (2.99 km)
Ceiling: at least 12,000 feet AGL
Clouds: few clouds at 2000 feet AGL
scattered clouds at 10000 feet AGL
Weather: HZ  (haze)

METAR text: VEGT 211300Z 01004KT 3500 HZ FEW020 SCT100 27/17 Q1010 NOSIG
Conditions at: VEGT (GAUHATI (IN-AFB), IN) observed 1300 UTC 21 March 2019
Temperature: 27.0°C (81°F)
Dewpoint: 17.0°C (63°F) [RH = 54%]
Pressure (altimeter): 29.82 inches Hg (1010.0 mb)
Winds: from the N (10 degrees) at 5 MPH (4 knots; 2.1 m/s)
Visibility: 2.17 miles (3.49 km)
Ceiling: at least 12,000 feet AGL
Clouds: few clouds at 2000 feet AGL
scattered clouds at 10000 feet AGL
Weather: HZ  (haze)

METAR text: VEGT 211231Z 05004KT 4000 HZ FEW020 SCT100 28/17 Q1009 BECMG 3000 HZ
Conditions at: VEGT (GAUHATI (IN-AFB), IN) observed 1231 UTC 21 March 2019
Temperature: 28.0°C (82°F)
Dewpoint: 17.0°C (63°F) [RH = 51%]
Pressure (altimeter): 29.79 inches Hg (1009.0 mb)
Winds: from the NE (50 degrees) at 5 MPH (4 knots; 2.1 m/s)
Visibility: 2.49 miles (4.01 km)
Ceiling: at least 12,000 feet AGL
Clouds: few clouds at 2000 feet AGL
scattered clouds at 10000 feet AGL
Weather: HZ  (haze)

Forecast for: VEGT (GAUHATI (IN-AFB), IN)
Text: TAF VEGT 222000Z 2221/2306 03008KT 2500 TS SCT018 FEW025CB BKN100
Forecast period: 2100 UTC 22 March 2019 to 0000 UTC 23 March 2019
Forecast type: FROM: standard forecast or significant change
Winds: from the NNE (30 degrees) at 9 MPH (8 knots; 4.1 m/s)
Visibility: 1.55 miles (2.49 km)
Ceiling: 10000 feet AGL
Clouds: scattered clouds at 1800 feet AGL
few clouds at 2500 feet AGL
broken clouds at 10000 feet AGL
Weather: TS  (thunderstorm)
Text: BECMG 2300/2302 00000KT 1500 BR SCT018 BKN100
Forecast period: 0000 to 0300 UTC 23 March 2019
Forecast type: BECOMING: Conditions expected to become as follows by 0200 UTC 23 March 2019
Winds: calm
Visibility: 0.93 miles (1.50 km)
Ceiling: 10000 feet AGL
Clouds: scattered clouds at 1800 feet AGL
broken clouds at 10000 feet AGL
Weather: BR  (mist)
Text: BECMG 2303/2305 03006KT 3000 HZ FEW020 SCT100
Forecast period: 0300 to 0600 UTC 23 March 2019
Forecast type: BECOMING: Conditions expected to become as follows by 0500 UTC 23 March 2019
Winds: from the NNE (30 degrees) at 7 MPH (6 knots; 3.1 m/s)
Visibility: 1.86 miles (2.99 km)
Ceiling: at least 12,000 feet AGL
Clouds: few clouds at 2000 feet AGL
scattered clouds at 10000 feet AGL
Weather: HZ  (haze)